createdAt,value
2022-12-27T00:02:45.449Z,0.10
2022-12-27T00:07:50.284Z,0.47
2022-12-27T00:12:54.403Z,0.30
2022-12-27T00:17:57.906Z,0.17
2022-12-27T00:23:02.900Z,0.10
2022-12-27T00:28:06.494Z,0.10
2022-12-27T00:33:09.801Z,0.20
2022-12-27T00:38:14.411Z,0.15
2022-12-27T00:43:18.072Z,0.20
2022-12-27T00:48:22.311Z,0.20
2022-12-27T00:53:27.535Z,0.17
2022-12-27T00:58:30.884Z,0.20
2022-12-27T01:03:34.219Z,0.28
2022-12-27T01:08:39.029Z,0.20
2022-12-27T01:13:42.901Z,0.30
2022-12-27T01:18:46.512Z,0.20
2022-12-27T01:23:51.746Z,0.30
2022-12-27T01:28:55.413Z,0.20
2022-12-27T01:34:00.046Z,0.20
2022-12-27T01:39:05.322Z,0.20
2022-12-27T01:44:50.325Z,0.30
2022-12-27T01:50:00.930Z,0.30
2022-12-27T01:55:12.188Z,0.30
2022-12-27T02:00:16.438Z,0.20
2022-12-27T02:05:21.907Z,0.10
2022-12-27T02:10:29.036Z,0.20
2022-12-27T02:15:32.411Z,0.20
2022-12-27T02:20:51.189Z,0.30
2022-12-27T02:26:15.717Z,0.20
2022-12-27T02:31:26.085Z,0.40
2022-12-27T02:36:36.430Z,0.38
2022-12-27T02:41:57.881Z,0.20
2022-12-27T02:47:20.022Z,0.40
2022-12-27T02:52:51.891Z,0.32
2022-12-27T02:58:12.676Z,0.20
2022-12-27T03:03:30.838Z,0.30
2022-12-27T03:08:40.258Z,0.20
2022-12-27T03:14:05.396Z,0.30
2022-12-27T03:19:14.148Z,0.52
2022-12-27T03:24:38.044Z,0.40
2022-12-27T03:30:04.817Z,0.63
2022-12-27T03:35:17.122Z,0.20
2022-12-27T03:40:26.019Z,0.30
2022-12-27T03:45:49.833Z,0.20
2022-12-27T03:51:04.880Z,0.75
2022-12-27T03:56:09.404Z,0.30
2022-12-27T04:01:12.767Z,0.25
2022-12-27T04:06:17.506Z,0.20
2022-12-27T04:11:38.130Z,0.30
2022-12-27T04:16:58.647Z,0.30
2022-12-27T04:22:21.093Z,0.30
2022-12-27T04:27:42.064Z,0.40
2022-12-27T04:33:02.624Z,0.30
2022-12-27T04:38:07.283Z,0.30
2022-12-27T04:43:28.626Z,0.20
2022-12-27T04:48:49.120Z,0.28
2022-12-27T04:54:16.549Z,0.20
2022-12-27T04:59:37.484Z,0.30
2022-12-27T05:04:41.581Z,0.20
2022-12-27T05:10:03.878Z,0.40
2022-12-27T05:15:08.186Z,0.30
2022-12-27T05:20:12.807Z,0.30
2022-12-27T05:25:37.083Z,0.30
2022-12-27T05:30:43.039Z,0.20
2022-12-27T05:35:46.889Z,0.60
2022-12-27T05:40:51.512Z,0.40
2022-12-27T05:45:55.105Z,0.30
2022-12-27T05:50:58.386Z,0.70
2022-12-27T05:56:03.392Z,0.30
2022-12-27T06:01:10.231Z,0.30
2022-12-27T06:06:14.415Z,0.43
2022-12-27T06:11:21.011Z,0.28
2022-12-27T06:16:24.847Z,0.43
2022-12-27T06:21:28.465Z,0.30
2022-12-27T06:26:33.282Z,0.22
2022-12-27T06:31:36.697Z,1.33
2022-12-27T06:36:40.211Z,0.53
2022-12-27T06:41:45.048Z,0.40
2022-12-27T06:46:48.606Z,0.43
2022-12-27T06:51:59.061Z,0.47
2022-12-27T06:57:04.374Z,0.50
2022-12-27T07:02:07.978Z,0.43
2022-12-27T07:07:15.569Z,0.30
2022-12-27T07:12:20.867Z,0.47
2022-12-27T07:17:24.207Z,0.33
2022-12-27T07:22:29.017Z,0.30
2022-12-27T07:27:36.510Z,0.45
2022-12-27T07:32:40.233Z,0.50
2022-12-27T07:37:43.472Z,0.30
2022-12-27T07:42:48.481Z,0.65
2022-12-27T07:47:51.802Z,0.40
2022-12-27T07:52:55.367Z,0.68
2022-12-27T07:58:00.962Z,0.40
2022-12-27T08:03:04.831Z,0.63
2022-12-27T08:08:08.221Z,1.17
2022-12-27T08:13:13.045Z,0.47
2022-12-27T08:18:16.364Z,0.40
2022-12-27T08:23:19.741Z,0.68
2022-12-27T08:28:24.403Z,0.37
2022-12-27T08:33:28.800Z,0.53
2022-12-27T08:38:32.035Z,0.47
2022-12-27T08:43:37.169Z,0.90
2022-12-27T08:48:40.646Z,0.77
2022-12-27T08:53:44.306Z,1.00
2022-12-27T08:58:50.277Z,0.53
2022-12-27T09:03:53.664Z,0.50
2022-12-27T09:08:57.446Z,1.03
2022-12-27T09:14:04.113Z,0.50
2022-12-27T09:19:07.425Z,0.63
2022-12-27T09:24:12.514Z,0.83
2022-12-27T09:29:17.248Z,1.83
2022-12-27T09:34:20.623Z,1.67
2022-12-27T09:39:23.996Z,0.90
2022-12-27T09:44:34.736Z,1.20
2022-12-27T09:49:41.210Z,1.00
2022-12-27T09:54:59.404Z,0.70
2022-12-27T10:00:16.556Z,0.40
2022-12-27T10:05:23.170Z,1.70
2022-12-27T10:10:38.330Z,0.73
2022-12-27T10:15:50.392Z,0.73
2022-12-27T10:21:03.526Z,0.30
2022-12-27T10:26:12.743Z,0.40
2022-12-27T10:31:19.634Z,0.40
2022-12-27T10:36:27.105Z,0.70
2022-12-27T10:41:40.650Z,0.97
2022-12-27T10:46:50.572Z,0.47
2022-12-27T10:51:57.243Z,1.87
2022-12-27T10:57:19.806Z,0.60
2022-12-27T11:02:24.582Z,0.40
2022-12-27T11:07:32.296Z,0.67
2022-12-27T11:12:36.297Z,0.77
2022-12-27T11:17:44.856Z,0.40
2022-12-27T11:22:52.429Z,0.90
2022-12-27T11:28:00.650Z,1.23
2022-12-27T11:33:08.601Z,0.50
2022-12-27T11:38:23.004Z,0.40
2022-12-27T11:43:27.870Z,2.37
2022-12-27T11:48:37.529Z,0.87
2022-12-27T11:54:15.480Z,0.57
2022-12-27T11:59:33.464Z,0.70
2022-12-27T12:05:04.613Z,0.50
2022-12-27T12:10:25.598Z,0.57
2022-12-27T12:16:01.105Z,1.33
2022-12-27T12:21:27.627Z,1.93
2022-12-27T12:26:36.337Z,0.60
2022-12-27T12:32:33.587Z,0.50
2022-12-27T12:37:55.386Z,1.45
2022-12-27T12:43:08.632Z,1.00
2022-12-27T12:48:42.539Z,0.60
2022-12-27T12:54:06.082Z,1.48
2022-12-27T12:59:22.403Z,0.80
2022-12-27T13:04:55.673Z,0.67
2022-12-27T13:10:35.619Z,0.97
2022-12-27T13:15:53.219Z,0.50
2022-12-27T13:21:13.544Z,0.57
2022-12-27T13:26:27.027Z,0.87
2022-12-27T13:31:41.268Z,1.80
2022-12-27T13:37:01.197Z,0.90
2022-12-27T13:42:40.173Z,0.73
2022-12-27T13:48:12.823Z,0.40
2022-12-27T13:53:52.308Z,1.58
2022-12-27T13:59:31.366Z,0.53
2022-12-27T14:05:08.270Z,0.50
2022-12-27T14:10:18.987Z,1.73
2022-12-27T14:15:29.427Z,1.38
2022-12-27T14:20:47.491Z,0.60
2022-12-27T14:26:24.538Z,1.00
2022-12-27T14:32:03.550Z,1.43
2022-12-27T14:37:40.367Z,1.50
2022-12-27T14:43:26.786Z,1.98
2022-12-27T14:49:01.162Z,1.83
2022-12-27T14:54:56.402Z,1.13
2022-12-27T15:00:06.211Z,1.00
2022-12-27T15:05:25.696Z,1.40
2022-12-27T15:10:58.289Z,6.33
2022-12-27T15:16:15.281Z,0.80
2022-12-27T15:21:54.157Z,1.25
2022-12-27T15:27:03.169Z,0.60
2022-12-27T15:32:18.402Z,1.00
2022-12-27T15:37:56.927Z,1.52
2022-12-27T15:43:05.650Z,1.70
2022-12-27T15:48:41.633Z,1.23
2022-12-27T15:54:08.287Z,1.17
2022-12-27T15:59:38.877Z,2.13
2022-12-27T16:04:49.229Z,0.87
2022-12-27T16:09:54.617Z,0.80
2022-12-27T16:15:31.374Z,1.10
2022-12-27T16:20:34.973Z,1.33
2022-12-27T16:25:42.295Z,2.17
2022-12-27T16:30:48.931Z,2.90
2022-12-27T16:36:24.513Z,1.07
2022-12-27T16:41:44.891Z,1.70
2022-12-27T16:47:06.003Z,2.73
2022-12-27T16:52:27.157Z,1.20
2022-12-27T16:57:43.047Z,1.17
2022-12-27T17:02:47.694Z,2.70
2022-12-27T17:08:10.048Z,1.33
2022-12-27T17:13:18.710Z,2.63
2022-12-27T17:18:29.159Z,1.93
2022-12-27T17:23:32.932Z,1.53
2022-12-27T17:28:44.145Z,2.83
2022-12-27T17:34:01.286Z,1.60
2022-12-27T17:39:20.047Z,2.33
2022-12-27T17:44:40.240Z,1.20
2022-12-27T17:49:44.129Z,1.30
2022-12-27T17:55:04.711Z,2.37
2022-12-27T18:00:23.897Z,2.50
2022-12-27T18:05:30.945Z,1.87
2022-12-27T18:10:36.931Z,2.83
2022-12-27T18:15:45.642Z,1.53
2022-12-27T18:20:56.592Z,2.90
2022-12-27T18:26:10.719Z,2.10
2022-12-27T18:31:23.667Z,1.40
2022-12-27T18:36:30.133Z,1.33
2022-12-27T18:41:39.246Z,1.37
2022-12-27T18:46:45.230Z,2.07
2022-12-27T18:51:48.922Z,1.70
2022-12-27T18:56:55.032Z,1.93
2022-12-27T19:02:02.678Z,1.07
2022-12-27T19:07:10.560Z,2.20
2022-12-27T19:12:24.764Z,1.97
2022-12-27T19:17:33.414Z,1.43
2022-12-27T19:22:42.407Z,2.50
2022-12-27T19:28:01.147Z,1.50
2022-12-27T19:33:13.636Z,2.03
2022-12-27T19:38:21.126Z,2.20
2022-12-27T19:43:27.583Z,2.37
2022-12-27T19:48:33.000Z,3.37
2022-12-27T19:53:39.595Z,3.87
2022-12-27T19:58:43.659Z,2.93
2022-12-27T20:03:49.289Z,3.40
2022-12-27T20:08:53.401Z,2.63
2022-12-27T20:13:57.732Z,2.93
2022-12-27T20:19:02.632Z,2.87
2022-12-27T20:24:07.764Z,3.20
2022-12-27T20:29:12.662Z,2.33
2022-12-27T20:34:18.344Z,3.37
2022-12-27T20:39:22.314Z,3.53
2022-12-27T20:44:26.131Z,3.67
2022-12-27T20:49:33.016Z,2.30
2022-12-27T20:54:37.606Z,4.53
2022-12-27T20:59:41.320Z,6.23
2022-12-27T21:04:46.464Z,3.93
2022-12-27T21:09:50.222Z,3.17
2022-12-27T21:14:53.721Z,4.47
2022-12-27T21:19:59.114Z,4.17
2022-12-27T21:25:03.311Z,3.07
2022-12-27T21:30:07.546Z,4.17
2022-12-27T21:35:12.584Z,3.57
2022-12-27T21:40:16.190Z,4.13
2022-12-27T21:45:19.707Z,4.37
2022-12-27T21:50:24.368Z,6.33
2022-12-27T21:55:27.693Z,4.07
2022-12-27T22:00:31.290Z,3.87
2022-12-27T22:05:36.156Z,5.00
2022-12-27T22:10:39.483Z,5.37
2022-12-27T22:15:42.822Z,4.40
2022-12-27T22:20:48.042Z,3.93
2022-12-27T22:25:51.346Z,3.23
2022-12-27T22:30:54.933Z,3.00
2022-12-27T22:36:05.561Z,2.47
2022-12-27T22:41:10.278Z,2.80
2022-12-27T22:46:14.750Z,3.10
2022-12-27T22:51:21.861Z,4.50
2022-12-27T22:56:27.596Z,3.10
2022-12-27T23:01:33.019Z,3.67
2022-12-27T23:06:38.279Z,2.67
2022-12-27T23:11:42.539Z,4.57
2022-12-27T23:16:47.499Z,4.60
2022-12-27T23:21:52.343Z,4.87
2022-12-27T23:26:56.021Z,3.80
2022-12-27T23:31:59.514Z,3.77
2022-12-27T23:37:04.280Z,4.50
2022-12-27T23:42:07.572Z,3.30
2022-12-27T23:47:10.885Z,3.43
2022-12-27T23:52:15.808Z,4.63
2022-12-27T23:57:20.854Z,3.27
